createdAt,value
2022-11-10T00:02:10.609Z,12.20
2022-11-10T00:04:58.074Z,12.30
2022-11-10T00:07:45.727Z,12.40
2022-11-10T00:10:33.586Z,12.40
2022-11-10T00:13:21.287Z,12.40
2022-11-10T00:16:29.294Z,12.40
2022-11-10T00:19:17.191Z,12.40
2022-11-10T00:22:04.555Z,12.40
2022-11-10T00:24:51.944Z,12.40
2022-11-10T00:27:39.701Z,12.30
2022-11-10T00:30:27.839Z,12.30
2022-11-10T00:33:14.924Z,12.20
2022-11-10T00:36:02.744Z,12.20
2022-11-10T00:38:52.786Z,12.20
2022-11-10T00:41:40.469Z,12.10
2022-11-10T00:44:28.077Z,12.20
2022-11-10T00:47:15.496Z,12.10
2022-11-10T00:50:03.237Z,12.00
2022-11-10T00:52:50.834Z,12.00
2022-11-10T00:55:42.377Z,11.80
2022-11-10T00:58:29.849Z,11.80
2022-11-10T01:01:19.431Z,11.80
2022-11-10T01:04:07.045Z,11.70
2022-11-10T01:06:54.470Z,11.80
2022-11-10T01:09:42.246Z,11.90
2022-11-10T01:12:33.188Z,11.80
2022-11-10T01:15:27.039Z,11.80
2022-11-10T01:18:10.458Z,11.80
2022-11-10T01:20:57.813Z,11.80
2022-11-10T01:23:45.871Z,11.70
2022-11-10T01:26:33.442Z,11.60
2022-11-10T01:29:21.004Z,11.70
2022-11-10T01:32:08.637Z,11.70
2022-11-10T01:34:57.411Z,11.60
2022-11-10T01:37:45.849Z,11.50
2022-11-10T01:40:33.367Z,11.60
2022-11-10T01:43:21.413Z,11.60
2022-11-10T01:46:11.567Z,11.50
2022-11-10T01:49:02.260Z,11.60
2022-11-10T01:51:58.245Z,11.60
2022-11-10T01:54:48.550Z,11.60
2022-11-10T01:57:37.957Z,11.50
2022-11-10T02:00:27.925Z,11.50
2022-11-10T02:03:18.104Z,11.50
2022-11-10T02:06:07.807Z,11.40
2022-11-10T02:08:57.727Z,11.40
2022-11-10T02:11:46.484Z,11.40
2022-11-10T02:14:34.212Z,11.30
2022-11-10T02:17:21.554Z,11.30
2022-11-10T02:20:12.684Z,11.30
2022-11-10T02:23:00.466Z,11.20
2022-11-10T02:25:48.099Z,11.20
2022-11-10T02:28:38.234Z,11.20
2022-11-10T02:31:25.532Z,11.20
2022-11-10T02:34:13.286Z,11.20
2022-11-10T02:37:00.819Z,11.20
2022-11-10T02:39:48.257Z,11.10
2022-11-10T02:42:35.670Z,11.20
2022-11-10T02:45:23.155Z,11.10
2022-11-10T02:48:11.131Z,11.00
2022-11-10T02:50:58.470Z,11.10
2022-11-10T02:53:46.116Z,11.00
2022-11-10T02:56:35.647Z,11.00
2022-11-10T02:59:23.271Z,11.00
2022-11-10T03:02:10.978Z,10.90
2022-11-10T03:04:58.505Z,11.00
2022-11-10T03:07:46.248Z,10.90
2022-11-10T03:10:33.775Z,10.90
2022-11-10T03:13:21.580Z,10.80
2022-11-10T03:16:09.032Z,10.80
2022-11-10T03:18:56.519Z,10.80
2022-11-10T03:21:44.126Z,10.90
2022-11-10T03:25:39.663Z,10.90
2022-11-10T03:28:27.238Z,10.90
2022-11-10T03:31:14.980Z,11.00
2022-11-10T03:34:02.323Z,11.00
2022-11-10T03:36:49.741Z,11.10
2022-11-10T03:39:37.383Z,11.10
2022-11-10T03:42:25.186Z,11.00
2022-11-10T03:45:14.526Z,11.00
2022-11-10T03:48:02.066Z,11.00
2022-11-10T03:50:49.176Z,10.90
2022-11-10T03:53:36.702Z,11.00
2022-11-10T03:56:24.015Z,10.60
2022-11-10T03:59:11.524Z,10.80
2022-11-10T04:01:59.197Z,10.90
2022-11-10T04:05:04.778Z,11.00
2022-11-10T04:08:20.885Z,10.90
2022-11-10T04:11:08.281Z,11.10
2022-11-10T04:14:13.180Z,11.10
2022-11-10T04:17:01.708Z,11.20
2022-11-10T04:19:49.268Z,11.20
2022-11-10T04:22:54.313Z,11.20
2022-11-10T04:25:43.511Z,11.30
2022-11-10T04:28:31.237Z,11.30
2022-11-10T04:31:21.164Z,11.30
2022-11-10T04:34:16.312Z,11.30
2022-11-10T04:37:03.877Z,11.30
2022-11-10T04:39:51.394Z,11.30
2022-11-10T04:42:40.756Z,11.30
2022-11-10T04:45:28.213Z,11.00
2022-11-10T04:48:15.267Z,11.10
2022-11-10T04:51:08.042Z,11.20
2022-11-10T04:53:54.983Z,11.10
2022-11-10T04:56:42.664Z,11.20
2022-11-10T04:59:30.432Z,11.20
2022-11-10T05:02:18.086Z,11.20
2022-11-10T05:05:04.641Z,11.20
2022-11-10T05:07:51.452Z,11.30
2022-11-10T05:10:38.877Z,11.20
2022-11-10T05:13:26.303Z,11.20
2022-11-10T05:16:14.259Z,11.20
2022-11-10T05:19:02.036Z,10.80
2022-11-10T05:21:49.519Z,10.90
2022-11-10T05:24:37.091Z,11.00
2022-11-10T05:27:24.267Z,11.10
2022-11-10T05:30:12.197Z,11.10
2022-11-10T05:33:00.367Z,10.90
2022-11-10T05:35:52.417Z,11.10
2022-11-10T05:38:43.433Z,11.20
2022-11-10T05:41:29.016Z,11.20
2022-11-10T05:44:16.812Z,11.20
2022-11-10T05:47:04.354Z,11.30
2022-11-10T05:49:51.776Z,11.30
2022-11-10T05:52:50.904Z,11.20
2022-11-10T05:55:38.741Z,11.20
2022-11-10T05:58:26.204Z,11.20
2022-11-10T06:01:13.989Z,11.10
2022-11-10T06:04:01.426Z,11.20
2022-11-10T06:06:48.220Z,11.20
2022-11-10T06:09:36.786Z,11.10
2022-11-10T06:12:25.283Z,11.00
2022-11-10T06:15:14.115Z,10.90
2022-11-10T06:18:01.328Z,10.90
2022-11-10T06:20:49.588Z,10.90
2022-11-10T06:23:39.109Z,10.90
2022-11-10T06:26:26.597Z,10.90
2022-11-10T06:29:14.391Z,10.90
2022-11-10T06:32:01.939Z,11.00
2022-11-10T06:34:50.827Z,11.00
2022-11-10T06:37:41.407Z,11.00
2022-11-10T06:40:29.367Z,11.10
2022-11-10T06:43:16.657Z,11.10
2022-11-10T06:46:04.047Z,11.10
2022-11-10T06:48:51.852Z,11.10
2022-11-10T06:51:39.203Z,11.00
2022-11-10T06:54:26.618Z,10.90
2022-11-10T06:57:13.368Z,10.90
2022-11-10T07:00:00.245Z,10.90
2022-11-10T07:02:47.523Z,11.00
2022-11-10T07:05:36.728Z,10.90
2022-11-10T07:08:23.955Z,10.90
2022-11-10T07:11:11.550Z,11.00
2022-11-10T07:13:58.953Z,10.90
2022-11-10T07:16:48.306Z,10.90
2022-11-10T07:19:35.212Z,10.90
2022-11-10T07:22:23.552Z,11.00
2022-11-10T07:25:11.624Z,11.00
2022-11-10T07:28:00.992Z,10.90
2022-11-10T07:30:48.308Z,11.00
2022-11-10T07:33:35.902Z,11.00
2022-11-10T07:36:23.360Z,11.00
2022-11-10T07:39:12.687Z,10.90
2022-11-10T07:42:00.249Z,10.90
2022-11-10T07:44:47.550Z,10.80
2022-11-10T07:47:34.871Z,10.90
2022-11-10T07:50:22.080Z,11.00
2022-11-10T07:53:15.113Z,11.00
2022-11-10T07:56:02.340Z,11.00
2022-11-10T07:58:49.956Z,11.10
2022-11-10T08:01:37.323Z,11.10
2022-11-10T08:04:25.058Z,11.10
2022-11-10T08:07:12.855Z,11.10
2022-11-10T08:10:00.222Z,11.20
2022-11-10T08:12:49.066Z,11.20
2022-11-10T08:15:36.949Z,11.20
2022-11-10T08:18:26.825Z,11.30
2022-11-10T08:21:13.328Z,11.30
2022-11-10T08:24:00.124Z,11.20
2022-11-10T08:26:47.035Z,11.20
2022-11-10T08:29:33.768Z,11.20
2022-11-10T08:32:21.518Z,11.30
2022-11-10T08:35:09.095Z,11.40
2022-11-10T08:37:57.125Z,11.40
2022-11-10T08:40:46.343Z,11.40
2022-11-10T08:43:33.771Z,11.40
2022-11-10T08:46:21.489Z,11.50
2022-11-10T08:49:08.917Z,11.60
2022-11-10T08:51:56.378Z,11.70
2022-11-10T08:54:43.872Z,11.80
2022-11-10T08:57:32.341Z,11.80
2022-11-10T09:00:20.455Z,11.90
2022-11-10T09:03:11.067Z,11.90
2022-11-10T09:06:01.216Z,12.00
2022-11-10T09:08:48.772Z,12.00
2022-11-10T09:11:36.389Z,12.00
2022-11-10T09:14:23.658Z,12.00
2022-11-10T09:17:10.952Z,12.10
2022-11-10T09:19:58.612Z,12.10
2022-11-10T09:22:46.228Z,12.20
2022-11-10T09:25:34.827Z,12.10
2022-11-10T09:28:23.835Z,12.00
2022-11-10T09:31:11.176Z,12.10
2022-11-10T09:33:59.670Z,12.20
2022-11-10T09:36:47.508Z,12.20
2022-11-10T09:39:34.808Z,12.20
2022-11-10T09:42:40.028Z,12.10
2022-11-10T09:45:38.704Z,12.00
2022-11-10T09:48:34.613Z,12.00
2022-11-10T09:51:27.441Z,12.00
2022-11-10T09:54:39.031Z,11.90
2022-11-10T09:57:27.848Z,11.80
2022-11-10T10:00:19.381Z,11.90
2022-11-10T10:03:09.458Z,11.60
2022-11-10T10:06:02.649Z,11.80
2022-11-10T10:09:02.692Z,11.70
2022-11-10T10:11:56.769Z,11.80
2022-11-10T10:15:05.437Z,11.90
2022-11-10T10:18:01.690Z,11.70
2022-11-10T10:21:13.387Z,11.60
2022-11-10T10:24:15.207Z,11.60
2022-11-10T10:26:58.494Z,11.80
2022-11-10T10:29:49.382Z,12.10
2022-11-10T10:32:36.868Z,12.80
2022-11-10T10:35:24.737Z,13.50
2022-11-10T10:38:15.211Z,14.00
2022-11-10T10:41:05.854Z,14.20
2022-11-10T10:43:59.769Z,13.50
2022-11-10T10:46:53.465Z,13.70
2022-11-10T10:49:41.047Z,13.70
2022-11-10T10:52:28.310Z,13.90
2022-11-10T10:55:16.014Z,14.50
2022-11-10T10:58:23.823Z,14.60
2022-11-10T11:01:20.671Z,14.50
2022-11-10T11:04:19.988Z,14.30
2022-11-10T11:07:09.948Z,14.20
2022-11-10T11:09:57.145Z,14.20
2022-11-10T11:12:44.520Z,14.10
2022-11-10T11:15:32.087Z,14.70
2022-11-10T11:18:21.028Z,14.80
2022-11-10T11:21:24.224Z,15.50
2022-11-10T11:24:20.624Z,16.10
2022-11-10T11:27:20.209Z,16.40
2022-11-10T11:30:17.818Z,15.70
2022-11-10T11:33:20.535Z,16.30
2022-11-10T11:36:30.597Z,17.20
2022-11-10T11:39:21.100Z,17.40
2022-11-10T11:42:34.169Z,17.90
2022-11-10T11:45:27.039Z,16.90
2022-11-10T11:48:38.171Z,17.50
2022-11-10T11:51:37.016Z,18.00
2022-11-10T11:54:29.873Z,18.00
2022-11-10T11:57:35.814Z,17.90
2022-11-10T12:00:22.180Z,17.70
2022-11-10T12:03:18.614Z,17.40
2022-11-10T12:06:37.837Z,17.50
2022-11-10T12:09:43.969Z,17.80
2022-11-10T12:12:57.304Z,17.70
2022-11-10T12:15:53.794Z,17.90
2022-11-10T12:18:51.119Z,17.80
2022-11-10T12:21:57.931Z,16.60
2022-11-10T12:25:05.837Z,16.00
2022-11-10T12:27:56.207Z,16.70
2022-11-10T12:30:46.397Z,16.90
2022-11-10T12:33:45.979Z,17.00
2022-11-10T12:36:34.563Z,17.10
2022-11-10T12:39:28.147Z,17.20
2022-11-10T12:42:18.671Z,17.30
2022-11-10T12:45:20.816Z,17.40
2022-11-10T12:48:11.299Z,17.40
2022-11-10T12:51:27.975Z,17.20
2022-11-10T12:54:18.768Z,16.90
2022-11-10T12:57:09.535Z,16.40
2022-11-10T13:00:12.810Z,16.20
2022-11-10T13:03:00.255Z,16.00
2022-11-10T13:05:50.688Z,15.60
2022-11-10T13:08:43.595Z,15.90
2022-11-10T13:11:36.653Z,15.70
2022-11-10T13:14:27.327Z,15.20
2022-11-10T13:17:30.161Z,15.10
2022-11-10T13:20:49.351Z,15.00
2022-11-10T13:23:48.877Z,15.40
2022-11-10T13:26:46.045Z,15.50
2022-11-10T13:29:37.077Z,15.60
2022-11-10T13:32:30.326Z,15.80
2022-11-10T13:35:32.802Z,15.50
2022-11-10T13:38:41.501Z,15.50
2022-11-10T13:41:28.688Z,15.20
2022-11-10T13:44:25.837Z,15.10
2022-11-10T13:47:13.852Z,15.00
2022-11-10T13:50:02.341Z,14.80
2022-11-10T13:53:07.265Z,14.80
2022-11-10T13:55:55.815Z,15.00
2022-11-10T13:58:43.881Z,14.90
2022-11-10T14:01:31.099Z,15.00
2022-11-10T14:04:38.332Z,15.00
2022-11-10T14:07:26.436Z,14.90
2022-11-10T14:10:14.589Z,14.80
2022-11-10T14:13:04.200Z,14.80
2022-11-10T14:15:54.149Z,14.70
2022-11-10T14:18:48.597Z,14.70
2022-11-10T14:21:36.482Z,14.70
2022-11-10T14:24:27.423Z,14.70
2022-11-10T14:27:16.877Z,14.70
2022-11-10T14:30:05.152Z,14.80
2022-11-10T14:33:06.191Z,14.60
2022-11-10T14:35:54.326Z,14.70
2022-11-10T14:38:42.822Z,14.50
2022-11-10T14:41:29.755Z,14.60
2022-11-10T14:44:17.869Z,14.60
2022-11-10T14:47:18.403Z,14.60
2022-11-10T14:50:17.076Z,14.60
2022-11-10T14:53:10.646Z,14.60
2022-11-10T14:56:00.376Z,14.50
2022-11-10T14:58:50.088Z,14.50
2022-11-10T15:01:44.161Z,14.60
2022-11-10T15:04:34.299Z,14.50
2022-11-10T15:07:23.257Z,14.60
2022-11-10T15:10:23.184Z,14.50
2022-11-10T15:13:17.500Z,14.50
2022-11-10T15:16:30.808Z,14.50
2022-11-10T15:19:27.376Z,14.40
2022-11-10T15:22:23.898Z,14.40
2022-11-10T15:25:16.793Z,14.40
2022-11-10T15:28:07.364Z,14.40
2022-11-10T15:31:06.896Z,14.30
2022-11-10T15:33:57.163Z,14.30
2022-11-10T15:36:44.903Z,14.30
2022-11-10T15:39:32.327Z,14.30
2022-11-10T15:42:22.464Z,14.20
2022-11-10T15:45:10.689Z,14.20
2022-11-10T15:47:58.579Z,14.10
2022-11-10T15:50:49.186Z,14.10
2022-11-10T15:53:40.325Z,14.00
2022-11-10T15:56:27.371Z,14.00
2022-11-10T15:59:15.848Z,14.00
2022-11-10T16:02:05.237Z,14.00
2022-11-10T16:04:59.577Z,13.90
2022-11-10T16:07:44.618Z,13.90
2022-11-10T16:10:32.153Z,13.90
2022-11-10T16:13:29.099Z,13.90
2022-11-10T16:16:22.431Z,13.80
2022-11-10T16:19:13.854Z,13.70
2022-11-10T16:22:01.593Z,13.60
2022-11-10T16:24:49.428Z,13.60
2022-11-10T16:27:38.835Z,13.60
2022-11-10T16:30:26.301Z,13.50
2022-11-10T16:33:17.061Z,13.50
2022-11-10T16:36:05.479Z,13.40
2022-11-10T16:38:54.201Z,13.40
2022-11-10T16:41:42.436Z,13.30
2022-11-10T16:44:29.500Z,13.30
2022-11-10T16:47:20.507Z,13.30
2022-11-10T16:50:11.386Z,13.20
2022-11-10T16:52:59.333Z,13.30
2022-11-10T16:55:46.947Z,13.20
2022-11-10T16:58:34.378Z,13.20
2022-11-10T17:01:24.996Z,13.20
2022-11-10T17:04:14.517Z,13.20
2022-11-10T17:07:02.284Z,13.10
2022-11-10T17:09:49.594Z,13.10
2022-11-10T17:12:36.972Z,13.10
2022-11-10T17:15:25.418Z,13.10
2022-11-10T17:18:15.988Z,13.10
2022-11-10T17:21:05.281Z,13.00
2022-11-10T17:23:53.075Z,13.00
2022-11-10T17:26:40.999Z,12.90
2022-11-10T17:29:29.362Z,12.90
2022-11-10T17:32:16.729Z,12.80
2022-11-10T17:35:04.519Z,12.80
2022-11-10T17:37:56.022Z,12.80
2022-11-10T17:40:44.144Z,12.80
2022-11-10T17:43:31.879Z,12.70
2022-11-10T17:46:19.510Z,12.70
2022-11-10T17:49:06.889Z,12.70
2022-11-10T17:51:54.595Z,12.60
2022-11-10T17:54:42.342Z,12.60
2022-11-10T17:57:29.919Z,12.50
2022-11-10T18:00:19.848Z,12.50
2022-11-10T18:03:08.855Z,12.50
2022-11-10T18:05:56.385Z,12.40
2022-11-10T18:08:45.827Z,12.30
2022-11-10T18:11:33.063Z,12.30
2022-11-10T18:14:20.385Z,12.30
2022-11-10T18:17:08.023Z,12.20
2022-11-10T18:19:55.732Z,12.20
2022-11-10T18:22:43.898Z,12.10
2022-11-10T18:25:31.471Z,12.10
2022-11-10T18:28:19.415Z,12.10
2022-11-10T18:31:09.757Z,12.10
2022-11-10T18:33:57.364Z,12.10
2022-11-10T18:36:44.759Z,12.00
2022-11-10T18:39:32.651Z,12.00
2022-11-10T18:42:20.115Z,11.80
2022-11-10T18:45:08.992Z,11.70
2022-11-10T18:47:59.391Z,11.80
2022-11-10T18:50:46.926Z,11.80
2022-11-10T18:53:38.224Z,11.80
2022-11-10T18:56:24.266Z,11.80
2022-11-10T18:59:11.538Z,11.70
2022-11-10T19:01:58.965Z,11.60
2022-11-10T19:04:49.661Z,11.60
2022-11-10T19:07:35.692Z,11.70
2022-11-10T19:10:22.796Z,11.60
2022-11-10T19:13:10.323Z,11.60
2022-11-10T19:16:00.032Z,11.60
2022-11-10T19:18:48.439Z,11.50
2022-11-10T19:21:36.230Z,11.50
2022-11-10T19:24:27.959Z,11.50
2022-11-10T19:27:14.765Z,11.40
2022-11-10T19:30:02.561Z,11.50
2022-11-10T19:32:49.803Z,11.50
2022-11-10T19:35:42.951Z,11.40
2022-11-10T19:38:30.397Z,11.40
2022-11-10T19:41:29.311Z,11.40
2022-11-10T19:44:16.451Z,11.40
2022-11-10T19:47:03.775Z,11.30
2022-11-10T19:49:51.091Z,11.30
2022-11-10T19:52:38.619Z,11.20
2022-11-10T19:55:26.133Z,11.30
2022-11-10T19:58:14.860Z,11.20
2022-11-10T20:01:02.260Z,11.20
2022-11-10T20:03:49.941Z,11.20
2022-11-10T20:06:37.514Z,11.20
2022-11-10T20:09:25.276Z,11.10
2022-11-10T20:12:12.694Z,11.00
2022-11-10T20:15:01.025Z,10.70
2022-11-10T20:17:48.437Z,10.90
2022-11-10T20:20:37.861Z,10.90
2022-11-10T20:23:26.205Z,11.00
2022-11-10T20:26:15.993Z,10.90
2022-11-10T20:29:03.312Z,10.90
2022-11-10T20:31:50.920Z,10.90
2022-11-10T20:34:38.430Z,10.90
2022-11-10T20:37:26.140Z,10.90
2022-11-10T20:40:42.496Z,10.80
2022-11-10T20:43:03.032Z,10.80
2022-11-10T20:46:13.736Z,10.80
2022-11-10T20:49:00.462Z,10.80
2022-11-10T20:51:48.313Z,10.80
2022-11-10T20:54:35.834Z,10.80
2022-11-10T20:57:23.415Z,10.70
2022-11-10T21:00:12.195Z,10.70
2022-11-10T21:02:59.912Z,10.60
2022-11-10T21:05:47.884Z,10.60
2022-11-10T21:08:37.068Z,10.50
2022-11-10T21:11:42.442Z,10.60
2022-11-10T21:14:29.932Z,10.50
2022-11-10T21:17:18.244Z,10.60
2022-11-10T21:20:06.041Z,10.50
2022-11-10T21:22:53.661Z,10.50
2022-11-10T21:25:41.465Z,10.50
2022-11-10T21:28:29.663Z,10.40
2022-11-10T21:31:18.853Z,10.40
2022-11-10T21:34:06.543Z,10.40
2022-11-10T21:36:53.778Z,10.40
2022-11-10T21:39:42.911Z,10.30
2022-11-10T21:42:35.166Z,10.40
2022-11-10T21:45:18.875Z,10.30
2022-11-10T21:48:07.102Z,10.30
2022-11-10T21:50:56.211Z,10.30
2022-11-10T21:53:43.772Z,10.20
2022-11-10T21:56:31.286Z,10.20
2022-11-10T21:59:20.252Z,10.20
2022-11-10T22:02:09.451Z,10.10
2022-11-10T22:04:56.707Z,10.10
2022-11-10T22:07:44.220Z,10.20
2022-11-10T22:10:49.377Z,10.10
2022-11-10T22:13:54.676Z,10.10
2022-11-10T22:17:09.332Z,10.00
2022-11-10T22:19:56.641Z,10.00
2022-11-10T22:22:44.270Z,10.00
2022-11-10T22:25:31.615Z,10.00
2022-11-10T22:28:20.772Z,10.00
2022-11-10T22:31:11.369Z,10.00
2022-11-10T22:33:58.672Z,10.00
2022-11-10T22:36:49.246Z,10.00
2022-11-10T22:39:54.687Z,9.90
2022-11-10T22:42:59.765Z,10.00
2022-11-10T22:45:47.400Z,9.90
2022-11-10T22:48:35.103Z,9.90
2022-11-10T22:51:23.031Z,9.80
2022-11-10T22:54:15.898Z,9.90
2022-11-10T22:57:03.635Z,9.80
2022-11-10T22:59:51.386Z,9.80
2022-11-10T23:02:39.081Z,9.80
2022-11-10T23:05:26.745Z,9.80
2022-11-10T23:08:14.083Z,9.80
2022-11-10T23:11:10.275Z,9.70
2022-11-10T23:13:58.749Z,9.60
2022-11-10T23:16:46.383Z,9.50
2022-11-10T23:19:34.012Z,9.50
2022-11-10T23:22:21.603Z,9.50
2022-11-10T23:25:09.107Z,9.40
2022-11-10T23:27:58.557Z,9.60
2022-11-10T23:30:45.965Z,9.60
2022-11-10T23:33:34.985Z,9.50
2022-11-10T23:36:24.867Z,9.50
2022-11-10T23:39:13.846Z,9.50
2022-11-10T23:42:01.458Z,9.50
2022-11-10T23:44:49.167Z,9.50
2022-11-10T23:47:36.712Z,9.40
2022-11-10T23:50:24.079Z,9.40
2022-11-10T23:53:11.480Z,9.40
2022-11-10T23:56:01.213Z,9.40
2022-11-10T23:58:48.687Z,9.40
